CheckWX is a tool to help pilots better visualize weather data.  It is not intended as a substitute for an official pre-flight weather briefing.

00:48:35 UTC

PAWG METAR
Wrangell Airport
Wrangell, Alaska, USA
Current

53 mins ago

PAWG 172356Z 18005KT 10SM FEW012 BKN025 OVC038 08/06 A2976 RMK AO2 RAB00E43 SLP077 P0002 60022 T00780056 10089 20072 51037
Observed
Nov-17 @ 23:56 UTC
Wind
  • 180° at 5 KTS
Visibility
10 SM
Flight Rules
MVFR
Cloud Levels
  • Few at 1,200' AGL
  • Broken at 2,500' AGL
  • Overcast at 3,800' AGL
Temperature
C / 46°F
Dewpoint
C / 43°F
Humidity
87%
Altimeter
29.76" Hg
Pressure
1007.82 hPa
Current Rain
0.02"
Previous

2 hours ago

PAWG 172256Z 16006KT 10SM FEW012 BKN025 OVC038 08/06 A2973 RMK AO2 RAB06E43 SLP066 P0003 T00780056
Observed
Nov-17 @ 22:56 UTC
Wind
  • 160° at 6 KTS
Visibility
10 SM
Flight Rules
MVFR
Cloud Levels
  • Few at 1,200' AGL
  • Broken at 2,500' AGL
  • Overcast at 3,800' AGL
Temperature
C / 46°F
Dewpoint
C / 43°F
Humidity
87%
Altimeter
29.73" Hg
Pressure
1006.82 hPa
Current Rain
0.03"
Previous

2 hours ago

PAWG 172238Z 17007KT 10SM -RA BKN025 BKN030 OVC038 08/06 A2972 RMK AO2 RAB06 P0002
Observed
Nov-17 @ 22:38 UTC
Wind
  • 170° at 7 KTS
Visibility
10 SM
Flight Rules
MVFR
Conditions
Light Rain
Cloud Levels
  • Broken at 2,500' AGL
  • Broken at 3,000' AGL
  • Overcast at 3,800' AGL
Temperature
C / 46°F
Dewpoint
C / 43°F
Humidity
87%
Altimeter
29.72" Hg
Pressure
1006.42 hPa
Current Rain
0.02"